Portada
METAR-TAF:

METAR-TAF

Aeroports :

Aeroport de la Ciutat de Londres

Londres, Anglaterra

latitud: 51-30N, longitud: 000-03E, altitud: 5 m

Observació

L'informe es va fer fa 35 minuts, a les 11:20 UTC
Vent 8 kt del Est/Sud-Est, variant entre Est i Sud/Sud-Est
Temperatura 8°C
Humitat 76%
Pressió 995 hPa
Visibilitat 10 km o més
Escasses núvols a una alçada de 1600 ft
Núvols disperses a una alçada de 2800 ft

METAR: EGLC 141120Z AUTO 12008KT 100V160 9999 FEW016 SCT028 08/04 Q0995

Hora: 11:55 (11:55 UTC)

Pronòstic

L'informe es va fer fa 49 minuts, a les 11:06 UTC
Pronòstic vàlid del 14 a les 12 UTC al 14 a les 21 UTC
Vent 6 kt del Sud-Est
Visibilitat 10 km o més
Núvols disperses a una alçada de 3000 ft
Probabilitat 30% :
Temporalment
l' 14 a les 15 UTC al 14 a les 21 UTC
Visibilitat: 6000 m
Cel ennuvolat a una alçada de 1400 ft
xàfecs de pluja

TAF: EGLC 141106Z 1412/1421 13006KT 9999 SCT030 PROB30 TEMPO 1415/1421 6000 SHRA BKN014

Observacions i pronòstics meteorològics de més de 4000 aeroports (METAR i TAF).

Les estacions disponibles són els punts grocs i vermells al mapa.

Posi el ratolí al punt desitjat per veure el nom de l'estació.

Feu clic per veure les observacions i els pronòstics meteorològics.

Per canviar el mapa: feu clic els botons verds amb una creu de color negre per apropar; al botó verd amb un guió per allunyar la imatge; o en les fletxes verdes per a mapes adjacents.


METAR-TAF: